Unlu-5 — TCON5 — position and weather

sailwx.info

Track history (hours):
 
Tides and Currents Weather Stations Pressure Air Temp Water Temp Dewpoint Dewpoint Depression Visibility Wind Speed Wind Dir Waves Ship Positions

Unlu-5

Last reported at 2014-Dec-16 12:26 UTC. Time now 2014-Dec-21 22:18 UTC.
Position N 38°17' E 012°42'.

Length 99 m; draft 6.3 m.

Type: Cargo ship. MMSI: 271000854.

Date/timePositionNaut miles runAvg speedWind from/ knotsBaromVisibWave heightAir tempDewpointWater temp
2014-Dec-16 12:26N 38°17' E 012°42'6 6.3
2014-Dec-16 11:33N 38°17' E 012°49'6 6.5
2014-Dec-16 10:33N 38°17' E 012°57'7 6.7
2014-Dec-16 09:33N 38°17' E 013°05'7 7.3
2014-Dec-16 08:33N 38°17' E 013°15'8 7.9
2014-Dec-16 07:33N 38°17' E 013°25'8 7.7
2014-Dec-16 06:33N 38°15' E 013°34'8 8.1
2014-Dec-16 05:33N 38°13' E 013°44'9 8.2
2014-Dec-16 04:31N 38°11' E 013°55'8 8.0
2014-Dec-16 03:32N 38°09' E 014°05'67 8.1
2014-Dec-15 19:16N 38°22' E 015°29'6 7.8
2014-Dec-15 18:33N 38°21' E 015°36'10 4.6
2014-Dec-15 16:25N 38°11' E 015°37'9 7.5
2014-Dec-15 15:17N 38°02' E 015°36'  
Track history (hours):
 
Tides and Currents Weather Stations Pressure Air Temp Water Temp Dewpoint Dewpoint Depression Visibility Wind Speed Wind Dir Waves Ship Positions

Unlu-5

Last reported at 2014-Dec-16 12:26 UTC. Time now 2014-Dec-21 22:18 UTC.
Position N 38°17' E 012°42'.

Length 99 m; draft 6.3 m.

Type: Cargo ship. MMSI: 271000854.

Date/timePositionNaut miles runAvg speedWind from/ knotsBaromVisibWave heightAir tempDewpointWater temp
2014-Dec-16 12:26N 38°17' E 012°42'6 6.3
2014-Dec-16 11:33N 38°17' E 012°49'6 6.5
2014-Dec-16 10:33N 38°17' E 012°57'7 6.7
2014-Dec-16 09:33N 38°17' E 013°05'7 7.3
2014-Dec-16 08:33N 38°17' E 013°15'8 7.9
2014-Dec-16 07:33N 38°17' E 013°25'8 7.7
2014-Dec-16 06:33N 38°15' E 013°34'8 8.1
2014-Dec-16 05:33N 38°13' E 013°44'9 8.2
2014-Dec-16 04:31N 38°11' E 013°55'8 8.0
2014-Dec-16 03:32N 38°09' E 014°05'67 8.1
2014-Dec-15 19:16N 38°22' E 015°29'6 7.8
2014-Dec-15 18:33N 38°21' E 015°36'10 4.6
2014-Dec-15 16:25N 38°11' E 015°37'9 7.5
2014-Dec-15 15:17N 38°02' E 015°36'  

Dump ship's entire track history